createdAt,value
2023-04-08T00:21:38.636Z,2.32
2023-04-08T00:41:40.240Z,1.97
2023-04-08T01:01:42.117Z,1.68
2023-04-08T01:21:43.666Z,1.40
2023-04-08T01:41:45.395Z,1.41
2023-04-08T02:01:47.286Z,1.13
2023-04-08T02:21:49.660Z,0.94
2023-04-08T02:41:51.267Z,0.75
2023-04-08T03:02:00.027Z,0.66
2023-04-08T03:22:02.173Z,0.62
2023-04-08T03:42:03.948Z,0.76
2023-04-08T04:02:05.914Z,0.69
2023-04-08T04:22:10.183Z,0.69
2023-04-08T04:42:11.824Z,0.56
2023-04-08T05:02:13.780Z,0.66
2023-04-08T05:22:15.459Z,0.73
2023-04-08T05:42:17.189Z,1.01
2023-04-08T06:02:18.919Z,1.25
2023-04-08T06:22:38.801Z,1.52
2023-04-08T06:42:58.689Z,1.56
2023-04-08T07:03:19.133Z,1.95
2023-04-08T07:23:42.961Z,2.38
2023-04-08T07:44:03.148Z,2.46
2023-04-08T08:04:23.330Z,2.49
2023-04-08T08:24:24.990Z,2.99
2023-04-08T08:44:26.671Z,2.98
2023-04-08T09:04:28.525Z,3.19
2023-04-08T09:24:30.150Z,3.10
2023-04-08T09:44:39.476Z,3.34
2023-04-08T11:06:22.615Z,4.08
2023-04-08T11:26:42.843Z,4.50
2023-04-08T12:29:38.354Z,6.33
2023-04-08T12:49:02.962Z,6.76
2023-04-08T13:09:27.574Z,6.71
2023-04-08T13:29:43.388Z,6.62
2023-04-08T15:55:06.061Z,5.70
2023-04-08T16:15:07.861Z,5.35
2023-04-08T16:55:43.676Z,4.95
2023-04-08T22:46:13.533Z,3.98
2023-04-08T23:06:15.846Z,4.00
2023-04-08T23:26:17.462Z,3.90
2023-04-08T23:46:18.991Z,3.79
